createdAt,value
2022-08-01T00:02:00.025Z,2.67
2022-08-01T00:04:27.501Z,2.54
2022-08-01T00:06:54.840Z,2.70
2022-08-01T00:09:24.326Z,2.43
2022-08-01T00:11:56.274Z,2.62
2022-08-01T00:14:32.512Z,2.42
2022-08-01T00:17:05.177Z,2.28
2022-08-01T00:19:34.217Z,2.55
2022-08-01T00:22:01.694Z,2.18
2022-08-01T00:24:29.185Z,2.36
2022-08-01T00:26:56.637Z,1.96
2022-08-01T00:30:10.212Z,2.19
2022-08-01T00:32:11.341Z,2.41
2022-08-01T00:34:38.805Z,2.48
2022-08-01T00:37:06.085Z,2.18
2022-08-01T00:39:33.346Z,2.36
2022-08-01T00:42:01.966Z,2.42
2022-08-01T00:44:29.230Z,2.49
2022-08-01T00:46:58.577Z,2.49
2022-08-01T00:49:25.940Z,2.48
2022-08-01T00:51:53.324Z,2.53
2022-08-01T00:54:20.871Z,2.67
2022-08-01T00:56:48.829Z,2.45
2022-08-01T00:59:16.067Z,2.65
2022-08-01T01:01:46.426Z,2.51
2022-08-01T01:04:14.174Z,2.87
2022-08-01T01:06:41.653Z,2.53
2022-08-01T01:09:08.909Z,2.78
2022-08-01T01:11:36.173Z,2.99
2022-08-01T01:14:03.418Z,3.02
2022-08-01T01:16:30.679Z,3.11
2022-08-01T01:18:58.203Z,2.93
2022-08-01T01:21:27.493Z,3.14
2022-08-01T01:23:54.760Z,3.08
2022-08-01T01:26:22.013Z,3.13
2022-08-01T01:28:49.267Z,3.15
2022-08-01T01:31:16.548Z,3.11
2022-08-01T01:33:45.336Z,3.20
2022-08-01T01:36:14.716Z,3.29
2022-08-01T01:38:42.083Z,3.11
2022-08-01T01:41:09.341Z,3.48
2022-08-01T01:43:36.578Z,3.47
2022-08-01T01:46:03.850Z,3.47
2022-08-01T01:48:31.092Z,3.31
2022-08-01T01:50:58.339Z,3.48
2022-08-01T01:53:25.599Z,3.20
2022-08-01T01:55:52.837Z,3.60
2022-08-01T01:58:20.739Z,3.46
2022-08-01T02:00:48.353Z,3.56
2022-08-01T02:03:17.858Z,3.41
2022-08-01T02:05:45.326Z,3.59
2022-08-01T02:08:12.580Z,3.46
2022-08-01T02:10:40.197Z,3.45
2022-08-01T02:13:07.474Z,3.33
2022-08-01T02:15:34.730Z,3.16
2022-08-01T02:18:01.968Z,3.45
2022-08-01T02:20:29.268Z,3.19
2022-08-01T02:22:56.507Z,3.59
2022-08-01T02:25:23.836Z,3.22
2022-08-01T02:27:51.098Z,3.26
2022-08-01T02:30:18.575Z,3.50
2022-08-01T02:32:45.914Z,3.25
2022-08-01T02:35:13.343Z,3.19
2022-08-01T02:37:45.189Z,3.19
2022-08-01T02:40:14.568Z,3.02
2022-08-01T02:42:41.813Z,3.08
2022-08-01T02:45:09.229Z,3.05
2022-08-01T02:47:36.501Z,3.05
2022-08-01T02:50:03.815Z,3.06
2022-08-01T02:52:31.057Z,2.96
2022-08-01T02:54:58.957Z,2.89
2022-08-01T02:57:30.158Z,3.08
2022-08-01T03:00:04.880Z,2.98
2022-08-01T03:02:33.495Z,3.19
2022-08-01T03:05:00.751Z,3.09
2022-08-01T03:07:34.223Z,2.89
2022-08-01T03:10:02.106Z,3.10
2022-08-01T03:12:29.386Z,2.97
2022-08-01T03:14:56.639Z,2.81
2022-08-01T03:17:24.351Z,2.88
2022-08-01T03:19:51.735Z,3.03
2022-08-01T03:22:19.279Z,2.97
2022-08-01T03:24:46.779Z,3.29
2022-08-01T03:27:18.523Z,3.01
2022-08-01T03:29:45.819Z,3.09
2022-08-01T03:32:13.077Z,3.17
2022-08-01T03:34:40.752Z,3.04
2022-08-01T03:37:08.148Z,3.19
2022-08-01T03:39:35.559Z,3.10
2022-08-01T03:42:02.861Z,3.16
2022-08-01T03:44:30.107Z,3.21
2022-08-01T03:46:57.401Z,3.12
2022-08-01T03:49:24.744Z,3.16
2022-08-01T03:51:52.025Z,3.37
2022-08-01T03:54:19.288Z,3.03
2022-08-01T03:56:46.520Z,3.12
2022-08-01T03:59:13.766Z,3.06
2022-08-01T04:01:41.089Z,3.05
2022-08-01T04:04:08.420Z,2.96
2022-08-01T04:06:35.675Z,2.97
2022-08-01T04:09:02.948Z,2.97
2022-08-01T04:11:30.186Z,3.22
2022-08-01T04:14:13.623Z,3.02
2022-08-01T04:16:40.879Z,3.28
2022-08-01T04:19:08.120Z,3.12
2022-08-01T04:21:35.393Z,3.37
2022-08-01T04:24:02.638Z,3.20
2022-08-01T04:26:30.061Z,2.92
2022-08-01T04:28:57.673Z,3.04
2022-08-01T04:31:25.101Z,3.11
2022-08-01T04:33:52.353Z,3.01
2022-08-01T04:36:20.628Z,3.07
2022-08-01T04:38:48.064Z,3.34
2022-08-01T04:41:15.523Z,3.14
2022-08-01T04:43:44.291Z,3.23
2022-08-01T04:46:11.805Z,3.09
2022-08-01T04:48:39.052Z,3.01
2022-08-01T04:51:06.330Z,3.07
2022-08-01T04:53:33.574Z,3.14
2022-08-01T04:56:00.963Z,3.17
2022-08-01T04:58:28.220Z,3.06
2022-08-01T05:00:55.566Z,3.11
2022-08-01T05:03:22.849Z,3.13
2022-08-01T05:05:50.197Z,3.19
2022-08-01T05:08:17.473Z,3.01
2022-08-01T05:10:44.777Z,3.43
2022-08-01T05:13:12.014Z,3.14
2022-08-01T05:15:39.453Z,3.20
2022-08-01T05:18:07.798Z,3.16
2022-08-01T05:20:36.102Z,2.90
2022-08-01T05:23:03.344Z,2.99
2022-08-01T05:25:57.607Z,3.27
2022-08-01T05:28:19.301Z,3.00
2022-08-01T05:30:46.795Z,2.95
2022-08-01T05:33:14.067Z,3.09
2022-08-01T05:35:48.366Z,2.90
2022-08-01T05:38:16.619Z,3.00
2022-08-01T05:40:44.088Z,3.21
2022-08-01T05:43:11.371Z,3.38
2022-08-01T05:45:38.788Z,3.09
2022-08-01T05:48:06.064Z,3.07
2022-08-01T05:50:33.367Z,2.97
2022-08-01T05:53:00.776Z,2.90
2022-08-01T05:55:28.046Z,2.95
2022-08-01T05:57:55.310Z,3.19
2022-08-01T06:00:22.583Z,2.95
2022-08-01T06:02:49.852Z,2.70
2022-08-01T06:05:17.200Z,3.07
2022-08-01T06:07:44.497Z,2.72
2022-08-01T06:10:11.765Z,2.88
2022-08-01T06:12:38.999Z,2.88
2022-08-01T06:15:06.251Z,2.60
2022-08-01T06:17:33.650Z,2.74
2022-08-01T06:20:00.958Z,2.53
2022-08-01T06:22:28.223Z,2.64
2022-08-01T06:24:55.476Z,2.79
2022-08-01T06:27:22.943Z,2.65
2022-08-01T06:29:51.233Z,2.66
2022-08-01T06:32:26.496Z,2.67
2022-08-01T06:34:54.471Z,2.69
2022-08-01T06:37:21.768Z,2.57
2022-08-01T06:39:49.028Z,2.57
2022-08-01T06:42:16.273Z,2.74
2022-08-01T06:44:43.617Z,2.68
2022-08-01T06:47:10.862Z,2.59
2022-08-01T06:49:38.275Z,2.66
2022-08-01T06:52:06.171Z,2.66
2022-08-01T06:54:33.585Z,2.56
2022-08-01T06:57:00.839Z,2.76
2022-08-01T06:59:28.135Z,2.42
2022-08-01T07:01:55.393Z,2.56
2022-08-01T07:04:22.663Z,2.61
2022-08-01T07:06:49.952Z,2.24
2022-08-01T07:09:17.230Z,2.53
2022-08-01T07:11:44.491Z,2.51
2022-08-01T07:14:11.724Z,2.44
2022-08-01T07:16:38.981Z,2.30
2022-08-01T07:19:06.259Z,2.39
2022-08-01T07:21:39.851Z,2.46
2022-08-01T07:24:12.633Z,2.54
2022-08-01T07:26:41.264Z,2.22
2022-08-01T07:29:20.274Z,2.54
2022-08-01T07:31:47.624Z,2.64
2022-08-01T07:34:14.879Z,2.29
2022-08-01T07:36:42.126Z,2.38
2022-08-01T07:39:09.384Z,2.41
2022-08-01T07:41:52.873Z,2.25
2022-08-01T07:44:23.898Z,2.42
2022-08-01T07:46:55.491Z,2.45
2022-08-01T07:49:22.853Z,2.41
2022-08-01T07:52:03.503Z,2.18
2022-08-01T07:54:33.537Z,2.28
2022-08-01T07:57:01.477Z,2.19
2022-08-01T07:59:28.750Z,2.24
2022-08-01T08:01:56.115Z,1.95
2022-08-01T08:04:23.435Z,2.05
2022-08-01T08:06:50.700Z,2.15
2022-08-01T08:09:18.000Z,2.12
2022-08-01T08:11:47.804Z,2.25
2022-08-01T08:14:15.705Z,2.36
2022-08-01T08:16:42.990Z,2.02
2022-08-01T08:19:10.230Z,2.03
2022-08-01T08:21:38.521Z,2.06
2022-08-01T08:24:05.775Z,1.97
2022-08-01T08:26:33.027Z,2.16
2022-08-01T08:29:00.317Z,2.09
2022-08-01T08:31:52.102Z,2.23
2022-08-01T08:34:14.782Z,2.22
2022-08-01T08:36:47.658Z,2.27
2022-08-01T08:39:15.387Z,2.09
2022-08-01T08:41:45.439Z,2.17
2022-08-01T08:44:17.039Z,2.13
2022-08-01T08:46:44.338Z,2.37
2022-08-01T08:49:11.797Z,2.41
2022-08-01T08:51:39.218Z,2.18
2022-08-01T08:54:06.456Z,2.24
2022-08-01T08:56:33.702Z,2.06
2022-08-01T08:59:00.974Z,2.29
2022-08-01T09:01:28.242Z,2.46
2022-08-01T09:03:55.501Z,2.15
2022-08-01T09:06:22.796Z,2.13
2022-08-01T09:08:50.066Z,2.34
2022-08-01T09:11:22.987Z,2.10
2022-08-01T09:13:50.666Z,2.09
2022-08-01T09:16:18.021Z,2.12
2022-08-01T09:18:45.271Z,2.05
2022-08-01T09:21:20.980Z,2.21
2022-08-01T09:23:53.825Z,2.20
2022-08-01T09:26:22.028Z,2.17
2022-08-01T09:28:51.679Z,2.26
2022-08-01T09:31:19.164Z,2.22
2022-08-01T09:33:46.545Z,2.17
2022-08-01T09:36:18.029Z,2.31
2022-08-01T09:38:50.905Z,2.59
2022-08-01T09:41:18.480Z,2.41
2022-08-01T09:43:47.229Z,2.58
2022-08-01T09:46:17.320Z,2.38
2022-08-01T09:48:49.328Z,2.56
2022-08-01T09:51:58.509Z,2.48
2022-08-01T09:54:04.612Z,2.14
2022-08-01T09:56:31.855Z,1.93
2022-08-01T09:59:01.609Z,2.05
2022-08-01T10:01:37.389Z,2.17
2022-08-01T10:04:06.410Z,2.05
2022-08-01T10:06:36.937Z,2.21
2022-08-01T10:09:04.811Z,1.89
2022-08-01T10:11:36.118Z,1.82
2022-08-01T10:14:04.227Z,2.03
2022-08-01T10:16:31.499Z,1.98
2022-08-01T10:18:58.874Z,2.00
2022-08-01T10:21:47.651Z,2.07
2022-08-01T10:24:13.381Z,1.97
2022-08-01T10:26:40.968Z,2.03
2022-08-01T10:29:45.285Z,2.01
2022-08-01T10:31:55.515Z,1.77
2022-08-01T10:34:27.690Z,1.67
2022-08-01T10:36:56.481Z,1.42
2022-08-01T10:39:23.728Z,1.50
2022-08-01T10:41:51.206Z,1.48
2022-08-01T10:44:19.018Z,1.54
2022-08-01T10:46:48.584Z,1.69
2022-08-01T10:49:15.888Z,1.34
2022-08-01T10:51:51.362Z,1.70
2022-08-01T10:54:20.602Z,1.51
2022-08-01T10:56:52.353Z,1.20
2022-08-01T10:59:50.158Z,1.40
2022-08-01T11:02:07.256Z,0.96
2022-08-01T11:04:34.792Z,1.22
2022-08-01T11:07:02.135Z,1.05
2022-08-01T11:09:30.437Z,0.88
2022-08-01T11:12:04.112Z,0.76
2022-08-01T11:14:53.983Z,0.87
2022-08-01T11:17:21.114Z,0.99
2022-08-01T11:19:48.404Z,0.90
2022-08-01T11:22:16.473Z,0.87
2022-08-01T11:24:44.101Z,0.86
2022-08-01T11:27:11.644Z,0.99
2022-08-01T11:29:38.996Z,0.97
2022-08-01T11:32:06.435Z,0.96
2022-08-01T11:34:36.006Z,0.91
2022-08-01T11:37:03.549Z,0.94
2022-08-01T11:39:38.315Z,1.04
2022-08-01T11:42:06.571Z,0.95
2022-08-01T11:44:34.547Z,1.03
2022-08-01T11:47:01.852Z,1.03
2022-08-01T11:49:29.621Z,1.05
2022-08-01T11:51:57.021Z,0.96
2022-08-01T11:54:35.225Z,0.86
2022-08-01T11:57:03.775Z,0.87
2022-08-01T11:59:37.864Z,0.76
2022-08-01T12:02:08.462Z,0.79
2022-08-01T12:04:35.871Z,0.72
2022-08-01T12:07:03.598Z,0.84
2022-08-01T12:09:31.020Z,0.86
2022-08-01T12:11:58.288Z,1.13
2022-08-01T12:14:25.543Z,1.09
2022-08-01T12:16:52.819Z,1.05
2022-08-01T12:19:20.044Z,0.85
2022-08-01T12:21:47.275Z,0.97
2022-08-01T12:24:14.538Z,0.95
2022-08-01T12:26:41.778Z,1.10
2022-08-01T12:29:09.009Z,1.21
2022-08-01T12:31:36.356Z,1.09
2022-08-01T12:34:03.586Z,1.21
2022-08-01T12:36:30.816Z,1.52
2022-08-01T12:38:58.083Z,1.36
2022-08-01T12:41:25.339Z,1.65
2022-08-01T12:43:52.580Z,1.41
2022-08-01T12:46:19.833Z,1.46
2022-08-01T12:48:47.183Z,1.40
2022-08-01T12:51:14.439Z,1.35
2022-08-01T12:53:41.840Z,1.28
2022-08-01T12:56:09.158Z,1.56
2022-08-01T12:58:36.425Z,1.62
2022-08-01T13:01:03.760Z,1.73
2022-08-01T13:03:31.073Z,1.57
2022-08-01T13:05:58.594Z,1.53
2022-08-01T13:08:26.183Z,1.54
2022-08-01T13:10:53.465Z,1.52
2022-08-01T13:13:28.413Z,1.48
2022-08-01T13:15:56.110Z,1.53
2022-08-01T13:18:25.749Z,1.52
2022-08-01T13:20:53.021Z,1.72
2022-08-01T13:23:21.397Z,1.96
2022-08-01T13:26:07.574Z,1.93
2022-08-01T13:28:36.842Z,2.05
2022-08-01T13:31:04.095Z,2.07
2022-08-01T13:33:31.459Z,1.97
2022-08-01T13:35:58.744Z,2.12
2022-08-01T13:38:25.990Z,2.14
2022-08-01T13:40:53.337Z,2.03
2022-08-01T13:43:20.576Z,2.08
2022-08-01T13:45:47.838Z,2.10
2022-08-01T13:48:19.009Z,2.22
2022-08-01T13:51:01.938Z,2.19
2022-08-01T13:53:34.243Z,1.95
2022-08-01T13:56:01.498Z,2.03
2022-08-01T13:58:28.751Z,2.01
2022-08-01T14:00:56.015Z,2.34
2022-08-01T14:03:33.490Z,1.99
2022-08-01T14:06:01.304Z,2.22
2022-08-01T14:08:28.538Z,1.95
2022-08-01T14:10:55.841Z,2.12
2022-08-01T14:13:23.860Z,2.10
2022-08-01T14:15:51.247Z,2.18
2022-08-01T14:18:21.865Z,1.81
2022-08-01T14:20:49.139Z,1.89
2022-08-01T14:23:17.849Z,2.07
2022-08-01T14:26:03.728Z,1.95
2022-08-01T14:28:33.021Z,2.11
2022-08-01T14:31:00.280Z,2.00
2022-08-01T14:33:27.532Z,2.12
2022-08-01T14:36:05.266Z,2.06
2022-08-01T14:38:34.958Z,2.05
2022-08-01T14:41:02.452Z,2.21
2022-08-01T14:43:33.156Z,2.31
2022-08-01T14:46:00.803Z,2.11
2022-08-01T14:48:28.116Z,2.06
2022-08-01T14:50:57.401Z,1.90
2022-08-01T14:53:24.669Z,1.99
2022-08-01T14:55:52.006Z,2.27
2022-08-01T14:58:19.273Z,2.20
2022-08-01T15:00:46.637Z,2.04
2022-08-01T15:03:14.286Z,2.01
2022-08-01T15:05:41.634Z,1.99
2022-08-01T15:08:09.019Z,1.97
2022-08-01T15:10:36.397Z,1.95
2022-08-01T15:13:04.101Z,1.91
2022-08-01T15:15:31.474Z,1.99
2022-08-01T15:17:59.160Z,2.02
2022-08-01T15:20:26.511Z,1.98
2022-08-01T15:22:56.513Z,2.01
2022-08-01T15:25:40.911Z,1.90
2022-08-01T15:28:11.573Z,2.12
2022-08-01T15:30:39.113Z,1.94
2022-08-01T15:33:06.417Z,1.99
2022-08-01T15:35:33.898Z,1.92
2022-08-01T15:38:01.238Z,2.14
2022-08-01T15:40:28.472Z,2.11
2022-08-01T15:42:55.700Z,1.90
2022-08-01T15:45:46.320Z,2.00
2022-08-01T15:48:10.759Z,1.96
2022-08-01T15:50:38.019Z,1.95
2022-08-01T15:53:05.285Z,2.03
2022-08-01T15:55:32.643Z,1.92
2022-08-01T15:57:59.908Z,2.09
2022-08-01T16:00:32.834Z,2.07
2022-08-01T16:03:03.338Z,2.04
2022-08-01T16:05:30.613Z,1.97
2022-08-01T16:08:01.588Z,1.97
2022-08-01T16:10:29.341Z,2.13
2022-08-01T16:12:56.609Z,1.75
2022-08-01T16:15:36.829Z,1.96
2022-08-01T16:18:04.615Z,1.85
2022-08-01T16:20:31.921Z,1.89
2022-08-01T16:22:59.400Z,1.76
2022-08-01T16:25:26.836Z,2.03
2022-08-01T16:27:54.235Z,2.08
2022-08-01T16:30:21.627Z,2.05
2022-08-01T16:32:52.792Z,1.92
2022-08-01T16:35:21.253Z,1.94
2022-08-01T16:37:51.796Z,2.05
2022-08-01T16:40:19.050Z,2.09
2022-08-01T16:42:46.320Z,2.03
2022-08-01T16:45:14.002Z,1.80
2022-08-01T16:47:41.400Z,2.17
2022-08-01T16:50:08.665Z,2.13
2022-08-01T16:52:35.912Z,1.97
2022-08-01T16:55:09.516Z,2.00
2022-08-01T16:57:36.763Z,1.92
2022-08-01T17:00:04.062Z,2.05
2022-08-01T17:02:31.356Z,2.18
2022-08-01T17:04:58.659Z,2.02
2022-08-01T17:07:26.035Z,2.09
2022-08-01T17:09:55.717Z,1.93
2022-08-01T17:12:22.967Z,1.87
2022-08-01T17:14:50.223Z,2.02
2022-08-01T17:17:17.526Z,2.26
2022-08-01T17:19:46.783Z,2.06
2022-08-01T17:22:14.038Z,2.13
2022-08-01T17:24:41.321Z,2.14
2022-08-01T17:27:12.851Z,2.12
2022-08-01T17:29:43.314Z,2.05
2022-08-01T17:32:13.579Z,2.08
2022-08-01T17:34:40.826Z,2.07
2022-08-01T17:37:08.628Z,2.10
2022-08-01T17:39:39.500Z,2.52
2022-08-01T17:42:07.338Z,2.12
2022-08-01T17:44:34.585Z,2.25
2022-08-01T17:47:01.824Z,2.00
2022-08-01T17:49:53.207Z,2.08
2022-08-01T17:52:16.301Z,2.13
2022-08-01T17:54:44.005Z,2.29
2022-08-01T17:57:11.240Z,2.00
2022-08-01T17:59:38.520Z,2.35
2022-08-01T18:02:05.783Z,2.27
2022-08-01T18:04:35.060Z,2.55
2022-08-01T18:07:08.519Z,2.33
2022-08-01T18:09:42.440Z,2.46
2022-08-01T18:12:13.174Z,2.21
2022-08-01T18:14:43.845Z,2.08
2022-08-01T18:17:11.614Z,2.62
2022-08-01T18:19:39.036Z,2.45
2022-08-01T18:22:14.440Z,2.22
2022-08-01T18:24:53.518Z,2.45
2022-08-01T18:27:20.756Z,2.53
2022-08-01T18:29:48.722Z,2.56
2022-08-01T18:32:16.126Z,2.40
2022-08-01T18:34:43.464Z,2.45
2022-08-01T18:37:10.746Z,2.37
2022-08-01T18:39:39.531Z,2.49
2022-08-01T18:42:06.811Z,2.67
2022-08-01T18:44:34.047Z,2.58
2022-08-01T18:47:01.300Z,2.52
2022-08-01T18:49:28.590Z,2.59
2022-08-01T18:51:56.040Z,2.78
2022-08-01T18:54:23.325Z,2.53
2022-08-01T18:56:50.575Z,2.24
2022-08-01T18:59:17.923Z,2.42
2022-08-01T19:01:45.397Z,2.48
2022-08-01T19:04:12.702Z,2.32
2022-08-01T19:06:40.564Z,2.46
2022-08-01T19:09:07.952Z,2.65
2022-08-01T19:11:36.336Z,2.52
2022-08-01T19:14:04.029Z,2.94
2022-08-01T19:16:31.275Z,2.94
2022-08-01T19:18:58.821Z,2.94
2022-08-01T19:21:26.110Z,3.05
2022-08-01T19:23:53.361Z,3.04
2022-08-01T19:26:20.739Z,3.11
2022-08-01T19:28:47.991Z,3.20
2022-08-01T19:31:15.266Z,3.38
2022-08-01T19:33:43.027Z,3.10
2022-08-01T19:36:10.279Z,3.17
2022-08-01T19:38:37.612Z,2.83
2022-08-01T19:41:05.084Z,3.23
2022-08-01T19:43:36.763Z,3.06
2022-08-01T19:46:06.370Z,3.22
2022-08-01T19:48:46.535Z,3.20
2022-08-01T19:51:17.403Z,3.06
2022-08-01T19:53:45.025Z,3.14
2022-08-01T19:56:12.278Z,3.25
2022-08-01T19:58:39.580Z,3.15
2022-08-01T20:01:06.923Z,3.30
2022-08-01T20:03:34.226Z,3.24
2022-08-01T20:06:01.490Z,3.16
2022-08-01T20:08:28.850Z,3.31
2022-08-01T20:10:56.139Z,3.03
2022-08-01T20:13:23.378Z,3.17
2022-08-01T20:15:50.632Z,3.25
2022-08-01T20:18:17.872Z,3.22
2022-08-01T20:20:45.147Z,3.45
2022-08-01T20:23:18.200Z,3.52
2022-08-01T20:25:46.408Z,3.33
2022-08-01T20:28:13.677Z,3.35
2022-08-01T20:30:41.210Z,3.32
2022-08-01T20:33:08.485Z,3.21
2022-08-01T20:35:52.395Z,3.36
2022-08-01T20:38:22.920Z,3.52
2022-08-01T20:40:50.574Z,3.33
2022-08-01T20:43:17.923Z,3.32
2022-08-01T20:45:45.196Z,3.48
2022-08-01T20:48:12.428Z,3.19
2022-08-01T20:50:53.206Z,3.23
2022-08-01T20:53:27.210Z,3.39
2022-08-01T20:55:54.477Z,3.43
2022-08-01T20:58:21.715Z,3.47
2022-08-01T21:00:49.050Z,3.48
2022-08-01T21:03:16.317Z,3.59
2022-08-01T21:05:55.562Z,3.30
2022-08-01T21:08:23.357Z,3.44
2022-08-01T21:10:50.671Z,3.60
2022-08-01T21:13:21.167Z,3.42
2022-08-01T21:16:23.287Z,3.48
2022-08-01T21:18:37.942Z,3.57
2022-08-01T21:21:05.299Z,3.38
2022-08-01T21:23:37.418Z,3.38
2022-08-01T21:26:04.713Z,3.46
2022-08-01T21:28:32.086Z,3.56
2022-08-01T21:30:59.387Z,3.73
2022-08-01T21:33:27.840Z,3.59
2022-08-01T21:35:55.137Z,3.79
2022-08-01T21:38:22.399Z,3.64
2022-08-01T21:40:49.788Z,3.64
2022-08-01T21:43:17.044Z,3.79
2022-08-01T21:45:58.116Z,3.60
2022-08-01T21:48:26.970Z,3.92
2022-08-01T21:50:57.571Z,3.89
2022-08-01T21:53:32.396Z,3.86
2022-08-01T21:56:15.068Z,3.92
2022-08-01T21:58:42.511Z,3.86
2022-08-01T22:01:09.781Z,3.84
2022-08-01T22:03:37.021Z,3.80
2022-08-01T22:06:04.271Z,4.39
2022-08-01T22:08:31.547Z,3.80
2022-08-01T22:10:58.794Z,4.16
2022-08-01T22:13:26.058Z,4.04
2022-08-01T22:15:53.329Z,4.08
2022-08-01T22:18:20.574Z,4.07
2022-08-01T22:20:47.909Z,4.06
2022-08-01T22:23:15.386Z,4.14
2022-08-01T22:25:42.636Z,4.36
2022-08-01T22:28:10.326Z,4.76
2022-08-01T22:30:37.773Z,4.18
2022-08-01T22:33:15.756Z,4.35
2022-08-01T22:35:44.603Z,4.58
2022-08-01T22:38:11.866Z,4.89
2022-08-01T22:40:39.182Z,4.55
2022-08-01T22:43:06.420Z,4.63
2022-08-01T22:45:35.137Z,4.43
2022-08-01T22:48:02.387Z,4.65
2022-08-01T22:50:36.503Z,4.51
2022-08-01T22:53:04.119Z,4.29
2022-08-01T22:55:58.738Z,4.37
2022-08-01T22:58:20.427Z,4.38
2022-08-01T23:00:47.681Z,4.49
2022-08-01T23:03:15.037Z,4.26
2022-08-01T23:05:42.290Z,4.36
2022-08-01T23:08:19.799Z,4.16
2022-08-01T23:10:47.050Z,3.93
2022-08-01T23:13:14.301Z,3.76
2022-08-01T23:15:41.659Z,3.80
2022-08-01T23:18:19.758Z,3.76
2022-08-01T23:20:47.028Z,3.66
2022-08-01T23:23:14.270Z,3.78
2022-08-01T23:25:41.605Z,3.61
2022-08-01T23:28:10.899Z,3.48
2022-08-01T23:30:38.260Z,3.53
2022-08-01T23:33:05.515Z,3.63
2022-08-01T23:35:39.013Z,3.95
2022-08-01T23:38:06.484Z,3.48
2022-08-01T23:40:33.727Z,3.53
2022-08-01T23:43:00.987Z,4.18
2022-08-01T23:45:28.231Z,3.87
2022-08-01T23:48:03.309Z,3.87
2022-08-01T23:50:30.559Z,3.70
2022-08-01T23:52:58.015Z,3.93
2022-08-01T23:55:36.652Z,3.76
2022-08-01T23:58:04.786Z,3.68
